createdAt,value
2024-05-09T00:00:22.453Z,7.30
2024-05-09T00:01:21.571Z,6.40
2024-05-09T00:02:23.861Z,5.40
2024-05-09T00:03:26.106Z,5.40
2024-05-09T00:04:28.247Z,5.60
2024-05-09T00:05:30.974Z,6.00
2024-05-09T00:06:33.544Z,5.40
2024-05-09T00:07:36.384Z,5.40
2024-05-09T00:08:38.750Z,7.10
2024-05-09T00:09:40.820Z,5.40
2024-05-09T00:10:43.413Z,4.90
2024-05-09T00:11:47.513Z,5.50
2024-05-09T00:12:49.789Z,3.70
2024-05-09T00:13:52.305Z,5.40
2024-05-09T00:14:54.544Z,6.00
2024-05-09T00:15:56.880Z,6.50
2024-05-09T00:16:59.297Z,3.40
2024-05-09T00:18:02.389Z,6.00
2024-05-09T00:19:05.019Z,4.00
2024-05-09T00:20:14.413Z,6.27
2024-05-09T00:21:13.331Z,5.80
2024-05-09T00:22:15.519Z,4.70
2024-05-09T00:23:17.777Z,5.20
2024-05-09T00:24:19.964Z,6.60
2024-05-09T00:25:24.045Z,4.10
2024-05-09T00:26:26.254Z,4.10
2024-05-09T00:27:28.318Z,5.90
2024-05-09T00:28:30.296Z,6.00
2024-05-09T00:29:32.574Z,6.00
2024-05-09T00:30:36.759Z,7.00
2024-05-09T00:31:38.978Z,4.60
2024-05-09T00:32:41.555Z,5.20
2024-05-09T00:33:43.860Z,5.40
2024-05-09T00:34:46.186Z,6.80
2024-05-09T00:35:48.400Z,6.00
2024-05-09T00:36:50.749Z,6.50
2024-05-09T00:37:52.881Z,6.40
2024-05-09T00:38:55.129Z,5.60
2024-05-09T00:39:57.732Z,4.90
2024-05-09T00:41:00.045Z,4.50
2024-05-09T00:42:02.526Z,5.40
2024-05-09T00:43:06.631Z,6.60
2024-05-09T00:44:10.351Z,6.10
2024-05-09T00:45:12.624Z,6.90
2024-05-09T00:46:16.317Z,5.90
2024-05-09T00:47:18.741Z,7.10
2024-05-09T00:48:21.726Z,7.50
2024-05-09T00:49:27.354Z,6.27
2024-05-09T00:50:36.071Z,5.10
2024-05-09T00:51:35.167Z,6.90
2024-05-09T00:52:37.986Z,6.70
2024-05-09T00:53:40.297Z,4.64
2024-05-09T00:54:42.679Z,5.20
2024-05-09T00:55:47.205Z,6.90
2024-05-09T00:56:51.968Z,6.50
2024-05-09T00:57:54.603Z,6.80
2024-05-09T00:58:57.367Z,2.80
2024-05-09T00:59:59.914Z,7.00
2024-05-09T01:01:03.313Z,4.80
2024-05-09T01:02:06.219Z,6.00
2024-05-09T01:03:11.018Z,5.30
2024-05-09T01:04:13.940Z,5.50
2024-05-09T01:05:16.194Z,7.10
2024-05-09T01:06:20.771Z,7.40
2024-05-09T01:07:24.288Z,6.50
2024-05-09T01:08:27.121Z,3.00
2024-05-09T01:09:29.760Z,3.50
2024-05-09T01:10:34.892Z,4.30
2024-05-09T01:11:40.402Z,6.50
2024-05-09T01:12:42.746Z,4.50
2024-05-09T01:13:45.666Z,6.40
2024-05-09T01:14:47.808Z,4.90
2024-05-09T01:15:51.920Z,5.00
2024-05-09T01:16:54.529Z,3.00
2024-05-09T01:17:57.857Z,4.70
2024-05-09T01:19:02.166Z,4.60
2024-05-09T01:20:06.410Z,5.00
2024-05-09T01:21:09.535Z,4.50
2024-05-09T01:22:12.106Z,5.10
2024-05-09T01:23:16.035Z,5.00
2024-05-09T01:24:18.528Z,3.80
2024-05-09T01:25:22.852Z,5.30
2024-05-09T01:26:25.315Z,4.90
2024-05-09T01:27:27.359Z,5.10
2024-05-09T01:28:29.752Z,4.11
2024-05-09T01:29:32.025Z,4.30
2024-05-09T01:30:36.826Z,3.60
2024-05-09T01:31:38.593Z,4.80
2024-05-09T01:32:40.923Z,3.70
2024-05-09T01:33:43.134Z,3.40
2024-05-09T01:34:45.365Z,4.90
2024-05-09T01:35:47.402Z,4.22
2024-05-09T01:36:49.656Z,2.40
2024-05-09T01:37:52.613Z,3.70
2024-05-09T01:38:54.919Z,4.73
2024-05-09T01:39:57.374Z,3.20
2024-05-09T01:40:59.726Z,3.30
2024-05-09T01:42:02.020Z,4.40
2024-05-09T01:43:04.887Z,4.30
2024-05-09T01:44:07.327Z,3.18
2024-05-09T01:45:10.400Z,4.90
2024-05-09T01:46:14.948Z,4.90
2024-05-09T01:47:17.406Z,5.00
2024-05-09T01:48:21.981Z,4.40
2024-05-09T01:49:24.308Z,4.10
2024-05-09T01:50:37.373Z,3.60
2024-05-09T01:51:30.902Z,3.50
2024-05-09T01:52:34.903Z,4.10
2024-05-09T01:53:37.284Z,5.10
2024-05-09T01:54:40.073Z,3.00
2024-05-09T01:55:43.365Z,4.60
2024-05-09T01:56:46.150Z,4.50
2024-05-09T01:57:48.191Z,4.40
2024-05-09T01:58:50.392Z,5.90
2024-05-09T01:59:52.722Z,5.90
2024-05-09T02:00:55.066Z,4.20
2024-05-09T02:01:58.165Z,5.10
2024-05-09T02:03:00.540Z,4.50
2024-05-09T02:04:03.147Z,6.30
2024-05-09T02:05:06.299Z,4.30
2024-05-09T02:06:11.602Z,5.50
2024-05-09T02:07:13.978Z,3.40
2024-05-09T02:08:18.675Z,4.60
2024-05-09T02:09:21.354Z,4.00
2024-05-09T02:10:31.691Z,4.30
2024-05-09T02:11:27.771Z,4.20
2024-05-09T02:12:30.501Z,3.30
2024-05-09T02:13:32.574Z,3.20
2024-05-09T02:14:34.858Z,3.50
2024-05-09T02:15:37.213Z,3.50
2024-05-09T02:16:39.594Z,3.40
2024-05-09T02:17:41.876Z,4.60
2024-05-09T02:18:44.492Z,3.00
2024-05-09T02:19:46.650Z,3.80
2024-05-09T02:20:48.887Z,2.80
2024-05-09T02:21:51.529Z,3.20
2024-05-09T02:22:53.773Z,3.00
2024-05-09T02:23:55.993Z,4.00
2024-05-09T02:24:58.177Z,2.80
2024-05-09T02:27:02.851Z,3.60
2024-05-09T02:28:05.747Z,3.00
2024-05-09T02:29:08.353Z,3.64
2024-05-09T02:30:18.828Z,3.20
2024-05-09T02:31:16.469Z,2.70
2024-05-09T02:32:18.920Z,2.90
2024-05-09T02:33:21.661Z,3.20
2024-05-09T02:34:24.285Z,3.00
2024-05-09T02:35:26.842Z,2.70
2024-05-09T02:36:29.622Z,3.00
2024-05-09T02:37:31.639Z,2.80
2024-05-09T02:38:36.705Z,3.30
2024-05-09T02:39:39.305Z,3.20
2024-05-09T02:40:41.982Z,3.80
2024-05-09T02:41:44.139Z,3.00
2024-05-09T02:42:47.071Z,3.10
2024-05-09T02:43:49.356Z,2.70
2024-05-09T02:44:51.478Z,2.80
2024-05-09T02:45:53.594Z,2.10
2024-05-09T02:46:55.981Z,2.80
2024-05-09T02:47:58.818Z,2.60
2024-05-09T02:49:01.451Z,3.10
2024-05-09T02:50:06.011Z,3.50
2024-05-09T02:51:08.500Z,2.50
2024-05-09T02:52:10.918Z,2.40
2024-05-09T02:53:14.589Z,2.70
2024-05-09T02:54:17.303Z,2.50
2024-05-09T02:55:21.368Z,3.60
2024-05-09T02:56:23.794Z,3.10
2024-05-09T02:57:25.849Z,3.40
2024-05-09T02:58:28.132Z,2.50
2024-05-09T02:59:30.152Z,3.30
2024-05-09T03:00:39.126Z,3.00
2024-05-09T03:01:36.803Z,2.80
2024-05-09T03:02:42.653Z,3.40
2024-05-09T03:03:47.218Z,1.90
2024-05-09T03:04:49.544Z,3.60
2024-05-09T03:05:52.058Z,2.60
2024-05-09T03:06:54.163Z,3.80
2024-05-09T03:07:56.472Z,3.90
2024-05-09T03:09:00.227Z,3.10
2024-05-09T03:10:03.478Z,3.90
2024-05-09T03:11:06.965Z,2.60
2024-05-09T03:12:09.230Z,3.70
2024-05-09T03:13:14.739Z,3.30
2024-05-09T03:14:18.341Z,4.50
2024-05-09T03:15:22.770Z,3.50
2024-05-09T03:16:25.041Z,3.00
2024-05-09T03:17:27.471Z,3.60
2024-05-09T03:18:30.109Z,4.20
2024-05-09T03:19:34.714Z,3.80
2024-05-09T03:20:37.554Z,5.90
2024-05-09T03:21:39.837Z,4.00
2024-05-09T03:22:42.098Z,3.10
2024-05-09T03:23:44.578Z,3.50
2024-05-09T03:24:47.383Z,4.20
2024-05-09T03:25:49.527Z,4.10
2024-05-09T03:26:51.980Z,3.30
2024-05-09T03:27:54.126Z,3.90
2024-05-09T03:28:56.631Z,3.00
2024-05-09T03:29:58.974Z,3.60
2024-05-09T03:31:01.775Z,3.45
2024-05-09T03:32:04.847Z,3.60
2024-05-09T03:33:10.003Z,4.00
2024-05-09T03:34:12.861Z,4.50
2024-05-09T03:35:18.451Z,3.40
2024-05-09T03:36:21.847Z,3.80
2024-05-09T03:37:24.937Z,4.50
2024-05-09T03:38:27.133Z,2.60
2024-05-09T03:39:29.299Z,3.30
2024-05-09T03:40:31.763Z,3.20
2024-05-09T03:41:34.402Z,2.80
2024-05-09T03:42:38.980Z,2.60
2024-05-09T03:43:43.115Z,2.60
2024-05-09T03:44:45.329Z,4.20
2024-05-09T03:45:49.878Z,3.50
2024-05-09T03:46:52.214Z,3.00
2024-05-09T03:47:54.601Z,3.10
2024-05-09T03:48:57.506Z,3.50
2024-05-09T03:50:00.816Z,3.60
2024-05-09T03:51:03.381Z,3.73
2024-05-09T03:52:05.843Z,3.30
2024-05-09T03:53:12.994Z,3.80
2024-05-09T03:54:15.211Z,3.10
2024-05-09T03:55:18.428Z,4.10
2024-05-09T03:56:20.697Z,3.40
2024-05-09T03:57:22.772Z,4.00
2024-05-09T03:58:24.720Z,3.80
2024-05-09T03:59:26.986Z,2.89
2024-05-09T04:00:36.953Z,3.50
2024-05-09T04:01:35.284Z,3.80
2024-05-09T04:02:41.320Z,3.70
2024-05-09T04:03:43.843Z,2.00
2024-05-09T04:04:46.579Z,3.60
2024-05-09T04:05:48.835Z,3.00
2024-05-09T04:06:51.208Z,3.50
2024-05-09T04:07:54.474Z,3.50
2024-05-09T04:08:56.497Z,3.00
2024-05-09T04:09:58.756Z,3.00
2024-05-09T04:11:01.212Z,3.00
2024-05-09T04:12:06.880Z,3.60
2024-05-09T04:13:09.680Z,2.70
2024-05-09T04:14:11.771Z,3.00
2024-05-09T04:15:14.717Z,2.50
2024-05-09T04:16:16.972Z,1.50
2024-05-09T04:17:19.239Z,3.60
2024-05-09T04:18:21.547Z,3.70
2024-05-09T04:19:24.437Z,2.40
2024-05-09T04:20:37.220Z,3.00
2024-05-09T04:21:32.977Z,3.20
2024-05-09T04:22:35.093Z,4.40
2024-05-09T04:23:38.583Z,2.90
2024-05-09T04:24:42.475Z,3.50
2024-05-09T04:25:45.721Z,4.00
2024-05-09T04:26:54.665Z,3.00
2024-05-09T04:27:57.637Z,2.80
2024-05-09T04:29:00.330Z,4.55
2024-05-09T04:30:06.184Z,3.00
2024-05-09T04:31:08.487Z,1.70
2024-05-09T04:32:10.841Z,2.20
2024-05-09T04:33:14.677Z,1.00
2024-05-09T04:34:18.159Z,2.50
2024-05-09T04:35:21.929Z,3.00
2024-05-09T04:36:24.818Z,4.80
2024-05-09T04:37:27.399Z,3.50
2024-05-09T04:38:30.467Z,3.20
2024-05-09T04:39:33.075Z,3.50
2024-05-09T04:40:37.252Z,3.40
2024-05-09T04:41:39.758Z,3.00
2024-05-09T04:42:42.017Z,3.20
2024-05-09T04:43:44.234Z,3.50
2024-05-09T04:44:46.710Z,3.80
2024-05-09T04:45:50.255Z,2.90
2024-05-09T04:46:53.231Z,3.10
2024-05-09T04:47:57.873Z,2.60
2024-05-09T04:49:01.036Z,2.80
2024-05-09T04:50:07.137Z,3.30
2024-05-09T04:51:10.427Z,3.00
2024-05-09T04:52:13.005Z,2.90
2024-05-09T04:53:16.622Z,3.20
2024-05-09T04:54:26.263Z,2.70
2024-05-09T04:55:26.906Z,4.10
2024-05-09T04:56:29.777Z,2.90
2024-05-09T04:57:31.896Z,3.30
2024-05-09T04:58:34.680Z,3.00
2024-05-09T04:59:37.054Z,3.00
2024-05-09T05:00:40.607Z,2.00
2024-05-09T05:01:43.503Z,2.80
2024-05-09T05:02:45.660Z,2.10
2024-05-09T05:03:48.364Z,1.30
2024-05-09T05:04:51.349Z,2.18
2024-05-09T05:05:54.180Z,3.00
2024-05-09T05:06:58.378Z,2.45
2024-05-09T05:08:00.794Z,3.70
2024-05-09T05:09:03.349Z,2.60
2024-05-09T05:10:09.324Z,2.40
2024-05-09T05:11:13.598Z,2.30
2024-05-09T05:12:34.926Z,2.20
2024-05-09T05:13:40.137Z,2.20
2024-05-09T05:14:41.410Z,2.00
2024-05-09T05:15:43.655Z,2.30
2024-05-09T05:16:46.470Z,2.80
2024-05-09T05:17:49.166Z,2.50
2024-05-09T05:18:51.495Z,2.90
2024-05-09T05:19:54.202Z,2.10
2024-05-09T05:20:57.642Z,1.50
2024-05-09T05:21:59.859Z,1.30
2024-05-09T05:23:02.195Z,2.70
2024-05-09T05:24:04.778Z,1.40
2024-05-09T05:25:06.873Z,2.60
2024-05-09T05:26:10.267Z,2.30
2024-05-09T05:27:12.849Z,0.80
2024-05-09T05:28:20.821Z,2.60
2024-05-09T05:29:23.048Z,2.60
2024-05-09T05:30:29.221Z,3.10
2024-05-09T05:31:29.446Z,2.50
2024-05-09T05:32:32.011Z,3.10
2024-05-09T05:33:34.897Z,2.00
2024-05-09T05:34:37.537Z,2.55
2024-05-09T05:35:40.910Z,2.20
2024-05-09T05:36:43.457Z,2.70
2024-05-09T05:37:45.431Z,2.00
2024-05-09T05:38:47.764Z,2.00
2024-05-09T05:39:50.860Z,3.40
2024-05-09T05:40:53.206Z,2.10
2024-05-09T05:41:55.673Z,2.40
2024-05-09T05:42:58.024Z,2.50
2024-05-09T05:44:00.276Z,2.60
2024-05-09T05:45:02.506Z,2.60
2024-05-09T05:46:04.746Z,2.80
2024-05-09T05:47:06.937Z,3.00
2024-05-09T05:48:09.297Z,1.60
2024-05-09T05:49:11.673Z,2.30
2024-05-09T05:50:23.805Z,2.50
2024-05-09T05:51:18.012Z,1.40
2024-05-09T05:52:21.469Z,2.00
2024-05-09T05:53:23.980Z,2.70
2024-05-09T05:54:26.240Z,2.00
2024-05-09T05:55:28.671Z,4.50
2024-05-09T05:56:30.888Z,3.00
2024-05-09T05:57:33.450Z,2.00
2024-05-09T05:58:35.593Z,2.80
2024-05-09T05:59:38.127Z,2.50
2024-05-09T06:00:41.726Z,2.60
2024-05-09T06:01:44.854Z,2.60
2024-05-09T06:02:47.656Z,2.70
2024-05-09T06:03:50.504Z,2.45
2024-05-09T06:04:53.121Z,2.20
2024-05-09T06:05:55.501Z,2.30
2024-05-09T06:06:57.906Z,2.90
2024-05-09T06:08:00.449Z,1.80
2024-05-09T06:09:02.945Z,2.30
2024-05-09T06:10:11.439Z,2.30
2024-05-09T06:11:10.665Z,1.40
2024-05-09T06:12:13.232Z,2.30
2024-05-09T06:13:15.777Z,2.70
2024-05-09T06:14:18.185Z,2.50
2024-05-09T06:15:20.355Z,2.70
2024-05-09T06:16:23.012Z,2.50
2024-05-09T06:17:25.354Z,2.00
2024-05-09T06:18:27.712Z,2.80
2024-05-09T06:19:30.355Z,2.00
2024-05-09T06:20:36.487Z,2.10
2024-05-09T06:21:37.508Z,2.50
2024-05-09T06:22:39.741Z,2.27
2024-05-09T06:23:46.409Z,1.80
2024-05-09T06:24:48.807Z,2.10
2024-05-09T06:25:51.728Z,2.50
2024-05-09T06:26:54.385Z,2.00
2024-05-09T06:27:56.652Z,3.00
2024-05-09T06:29:01.248Z,1.70
2024-05-09T06:30:05.197Z,2.10
2024-05-09T06:31:07.421Z,2.00
2024-05-09T06:32:09.530Z,1.80
2024-05-09T06:33:13.804Z,2.50
2024-05-09T06:34:18.358Z,2.20
2024-05-09T06:35:20.992Z,2.40
2024-05-09T06:36:24.230Z,1.90
2024-05-09T06:37:27.062Z,1.82
2024-05-09T06:38:29.195Z,2.00
2024-05-09T06:39:31.311Z,2.00
2024-05-09T06:40:37.716Z,0.90
2024-05-09T06:41:38.476Z,2.50
2024-05-09T06:42:41.106Z,2.45
2024-05-09T06:43:43.703Z,3.70
2024-05-09T06:44:47.816Z,2.60
2024-05-09T06:45:54.025Z,1.60
2024-05-09T06:46:59.973Z,2.90
2024-05-09T06:48:03.093Z,2.50
2024-05-09T06:49:08.003Z,2.20
2024-05-09T06:50:19.630Z,2.00
2024-05-09T06:51:15.184Z,1.90
2024-05-09T06:52:18.763Z,2.30
2024-05-09T06:53:24.185Z,2.70
2024-05-09T06:54:26.593Z,1.70
2024-05-09T06:55:29.486Z,2.00
2024-05-09T06:56:32.702Z,2.00
2024-05-09T06:57:34.976Z,2.00
2024-05-09T06:58:37.251Z,2.80
2024-05-09T06:59:39.699Z,2.00
2024-05-09T07:00:42.649Z,2.00
2024-05-09T07:01:45.464Z,1.00
2024-05-09T07:02:47.987Z,2.40
2024-05-09T07:03:50.250Z,2.40
2024-05-09T07:04:53.159Z,2.60
2024-05-09T07:05:55.621Z,2.18
2024-05-09T07:06:57.735Z,2.50
2024-05-09T07:07:59.772Z,1.78
2024-05-09T07:09:01.975Z,2.00
2024-05-09T07:10:07.726Z,2.00
2024-05-09T07:11:10.498Z,2.00
2024-05-09T07:12:13.998Z,2.00
2024-05-09T07:13:16.474Z,2.00
2024-05-09T07:14:18.691Z,2.30
2024-05-09T07:15:21.008Z,2.80
2024-05-09T07:16:23.371Z,1.70
2024-05-09T07:17:25.695Z,0.20
2024-05-09T07:18:28.153Z,2.60
2024-05-09T07:19:30.610Z,2.50
2024-05-09T07:20:35.106Z,1.80
2024-05-09T07:21:37.825Z,2.10
2024-05-09T07:22:40.044Z,1.70
2024-05-09T07:23:43.730Z,2.10
2024-05-09T07:24:46.255Z,2.50
2024-05-09T07:25:48.522Z,2.50
2024-05-09T07:26:50.949Z,2.00
2024-05-09T07:27:53.005Z,1.90
2024-05-09T07:28:55.481Z,2.20
2024-05-09T07:29:58.418Z,2.40
2024-05-09T07:31:00.739Z,2.00
2024-05-09T07:32:03.341Z,2.50
2024-05-09T07:33:05.716Z,2.10
2024-05-09T07:34:10.215Z,2.00
2024-05-09T07:35:13.405Z,1.50
2024-05-09T07:36:15.840Z,2.20
2024-05-09T07:37:18.383Z,2.00
2024-05-09T07:38:20.823Z,2.00
2024-05-09T07:39:24.033Z,2.20
2024-05-09T07:40:33.307Z,1.80
2024-05-09T07:41:31.505Z,2.00
2024-05-09T07:42:33.695Z,2.00
2024-05-09T07:43:36.102Z,1.20
2024-05-09T07:44:38.931Z,2.10
2024-05-09T07:45:50.710Z,2.18
2024-05-09T07:47:48.489Z,2.00
2024-05-09T07:49:13.684Z,1.50
2024-05-09T07:50:35.403Z,2.10
2024-05-09T07:51:33.071Z,1.80
2024-05-09T07:53:22.148Z,2.10
2024-05-09T07:53:37.188Z,2.40
2024-05-09T07:54:16.763Z,2.00
2024-05-09T07:55:21.450Z,2.20
2024-05-09T07:56:24.684Z,1.55
2024-05-09T07:57:28.029Z,1.60
2024-05-09T07:58:30.246Z,1.90
2024-05-09T07:59:36.102Z,1.30
2024-05-09T08:00:36.616Z,0.50
2024-05-09T08:01:40.219Z,1.40
2024-05-09T08:02:42.493Z,2.30
2024-05-09T08:03:44.946Z,1.80
2024-05-09T08:04:47.868Z,2.00
2024-05-09T08:05:56.605Z,2.40
2024-05-09T08:06:59.179Z,1.70
2024-05-09T08:08:01.449Z,2.10
2024-05-09T08:09:08.034Z,2.00
2024-05-09T08:10:10.683Z,1.80
2024-05-09T08:11:12.842Z,0.10
2024-05-09T08:12:15.439Z,1.90
2024-05-09T08:13:17.661Z,2.10
2024-05-09T08:14:20.039Z,2.50
2024-05-09T08:15:23.997Z,1.20
2024-05-09T08:16:26.412Z,2.30
2024-05-09T08:17:29.067Z,1.00
2024-05-09T08:18:31.892Z,2.10
2024-05-09T08:19:36.243Z,1.45
2024-05-09T08:20:39.810Z,2.20
2024-05-09T08:21:42.015Z,4.30
2024-05-09T08:22:45.535Z,2.09
2024-05-09T08:23:47.648Z,2.00
2024-05-09T08:24:49.956Z,2.50
2024-05-09T08:25:55.194Z,2.20
2024-05-09T08:26:57.489Z,1.70
2024-05-09T08:27:59.717Z,1.40
2024-05-09T08:29:02.271Z,2.40
2024-05-09T08:30:07.913Z,1.60
2024-05-09T08:31:11.287Z,1.60
2024-05-09T08:32:13.778Z,1.00
2024-05-09T08:33:16.342Z,1.50
2024-05-09T08:34:19.057Z,2.40
2024-05-09T08:35:21.778Z,1.91
2024-05-09T08:36:24.356Z,1.90
2024-05-09T08:37:31.051Z,2.10
2024-05-09T08:38:30.863Z,2.10
2024-05-09T08:39:33.005Z,1.30
2024-05-09T08:40:37.344Z,1.80
2024-05-09T08:41:42.171Z,2.00
2024-05-09T08:42:50.141Z,3.00
2024-05-09T08:43:52.487Z,1.80
2024-05-09T08:44:55.140Z,1.10
2024-05-09T08:45:58.898Z,1.20
2024-05-09T08:47:05.717Z,2.30
2024-05-09T08:48:09.071Z,2.00
2024-05-09T08:49:13.940Z,2.00
2024-05-09T08:50:28.748Z,1.90
2024-05-09T08:51:22.106Z,2.40
2024-05-09T08:52:24.440Z,0.00
2024-05-09T08:53:27.250Z,1.70
2024-05-09T08:54:30.226Z,1.09
2024-05-09T08:55:37.278Z,2.00
2024-05-09T08:56:45.069Z,2.20
2024-05-09T08:57:48.174Z,1.90
2024-05-09T08:58:54.071Z,2.00
2024-05-09T08:59:59.851Z,2.50
2024-05-09T09:01:04.412Z,1.50
2024-05-09T09:02:10.622Z,2.50
2024-05-09T09:03:18.440Z,1.80
2024-05-09T09:04:23.119Z,2.30
2024-05-09T09:05:31.249Z,2.50
2024-05-09T09:06:35.204Z,2.90
2024-05-09T09:07:39.466Z,1.70
2024-05-09T09:08:42.341Z,2.00
2024-05-09T09:09:46.869Z,2.18
2024-05-09T09:10:52.800Z,2.00
2024-05-09T09:11:55.037Z,2.50
2024-05-09T09:13:02.856Z,2.00
2024-05-09T09:14:05.042Z,2.50
2024-05-09T09:15:07.516Z,2.10
2024-05-09T09:16:10.697Z,1.80
2024-05-09T09:17:15.379Z,0.70
2024-05-09T09:18:18.675Z,2.20
2024-05-09T09:19:23.247Z,2.80
2024-05-09T09:20:34.078Z,2.00
2024-05-09T09:21:31.022Z,2.30
2024-05-09T09:22:34.234Z,2.10
2024-05-09T09:23:38.280Z,1.80
2024-05-09T09:24:40.944Z,2.20
2024-05-09T09:25:43.075Z,2.40
2024-05-09T09:26:45.372Z,1.70
2024-05-09T09:27:48.034Z,2.00
2024-05-09T09:28:51.133Z,1.70
2024-05-09T09:29:55.450Z,1.50
2024-05-09T09:31:02.469Z,2.20
2024-05-09T09:32:06.828Z,1.40
2024-05-09T09:33:10.224Z,2.00
2024-05-09T09:34:12.875Z,1.80
2024-05-09T09:35:16.725Z,2.40
2024-05-09T09:36:19.393Z,3.00
2024-05-09T09:37:24.944Z,2.00
2024-05-09T09:38:30.840Z,1.90
2024-05-09T09:39:36.534Z,2.00
2024-05-09T09:40:46.856Z,1.90
2024-05-09T09:41:48.366Z,0.50
2024-05-09T09:42:56.700Z,2.20
2024-05-09T09:44:01.295Z,2.80
2024-05-09T09:45:05.722Z,1.90
2024-05-09T09:46:12.459Z,1.70
2024-05-09T09:47:15.848Z,1.90
2024-05-09T09:48:19.594Z,1.80
2024-05-09T09:49:25.488Z,1.50
2024-05-09T09:50:34.222Z,2.90
2024-05-09T09:51:32.755Z,1.80
2024-05-09T09:52:35.865Z,2.10
2024-05-09T09:53:39.259Z,2.00
2024-05-09T09:54:44.555Z,1.90
2024-05-09T09:55:47.974Z,1.20
2024-05-09T09:56:50.818Z,1.00
2024-05-09T09:57:55.408Z,2.00
2024-05-09T09:59:00.952Z,2.00
2024-05-09T10:00:09.404Z,2.20
2024-05-09T10:01:10.211Z,2.00
2024-05-09T10:02:13.641Z,1.70
2024-05-09T10:03:16.718Z,2.60
2024-05-09T10:04:19.577Z,1.90
2024-05-09T10:05:23.042Z,1.45
2024-05-09T10:06:28.280Z,1.50
2024-05-09T10:07:32.116Z,3.00
2024-05-09T10:08:35.747Z,2.50
2024-05-09T10:09:39.433Z,2.40
2024-05-09T10:10:46.964Z,1.90
2024-05-09T10:11:52.433Z,2.50
2024-05-09T10:13:09.408Z,1.90
2024-05-09T10:14:12.066Z,2.00
2024-05-09T10:15:17.857Z,2.10
2024-05-09T10:16:23.766Z,2.30
2024-05-09T10:17:26.324Z,1.60
2024-05-09T10:18:34.144Z,2.00
2024-05-09T10:19:36.299Z,2.00
2024-05-09T10:20:39.911Z,1.90
2024-05-09T10:21:48.769Z,2.90
2024-05-09T10:22:51.306Z,2.90
2024-05-09T10:23:59.426Z,2.30
2024-05-09T10:25:07.125Z,2.00
2024-05-09T10:26:09.560Z,1.90
2024-05-09T10:27:11.916Z,1.40
2024-05-09T10:28:15.644Z,1.70
2024-05-09T10:29:18.882Z,2.20
2024-05-09T10:30:29.818Z,2.80
2024-05-09T10:31:31.647Z,2.10
2024-05-09T10:32:39.190Z,1.80
2024-05-09T10:33:48.706Z,1.90
2024-05-09T10:35:18.165Z,1.60
2024-05-09T10:36:25.504Z,1.80
2024-05-09T10:37:29.717Z,2.00
2024-05-09T10:38:32.159Z,2.00
2024-05-09T10:39:36.547Z,1.40
2024-05-09T10:40:41.085Z,1.70
2024-05-09T10:41:44.375Z,2.60
2024-05-09T10:42:46.658Z,2.00
2024-05-09T10:43:50.742Z,2.50
2024-05-09T10:44:53.294Z,1.90
2024-05-09T10:45:55.983Z,2.60
2024-05-09T10:46:58.864Z,2.20
2024-05-09T10:48:01.436Z,1.90
2024-05-09T10:49:07.166Z,1.70
2024-05-09T10:50:18.051Z,1.90
2024-05-09T10:51:13.776Z,0.90
2024-05-09T10:52:23.644Z,3.00
2024-05-09T10:53:25.977Z,1.80
2024-05-09T10:54:36.572Z,2.00
2024-05-09T10:55:38.972Z,2.50
2024-05-09T10:56:42.017Z,3.50
2024-05-09T10:57:44.681Z,2.50
2024-05-09T10:58:47.530Z,2.00
2024-05-09T10:59:50.304Z,1.50
2024-05-09T11:00:57.182Z,1.90
2024-05-09T11:02:02.809Z,2.00
2024-05-09T11:03:05.484Z,2.50
2024-05-09T11:04:08.130Z,3.70
2024-05-09T11:05:10.623Z,3.20
2024-05-09T11:06:18.063Z,1.60
2024-05-09T11:07:21.309Z,3.00
2024-05-09T11:08:24.688Z,2.60
2024-05-09T11:09:27.059Z,2.80
2024-05-09T11:10:33.816Z,1.50
2024-05-09T11:11:34.072Z,2.00
2024-05-09T11:12:36.768Z,2.00
2024-05-09T11:13:40.356Z,2.30
2024-05-09T11:14:53.535Z,1.90
2024-05-09T11:15:56.039Z,2.00
2024-05-09T11:17:08.599Z,2.00
2024-05-09T11:18:15.005Z,2.00
2024-05-09T11:19:19.405Z,1.70
2024-05-09T11:20:29.116Z,2.20
2024-05-09T11:21:26.644Z,1.90
2024-05-09T11:22:36.055Z,2.91
2024-05-09T11:23:38.547Z,1.50
2024-05-09T11:24:41.029Z,2.30
2024-05-09T11:25:51.848Z,2.30
2024-05-09T11:26:58.331Z,2.00
2024-05-09T11:28:01.224Z,2.70
2024-05-09T11:29:03.856Z,1.70
2024-05-09T11:30:14.321Z,2.00
2024-05-09T11:31:15.030Z,1.70
2024-05-09T11:32:21.020Z,1.82
2024-05-09T11:33:23.275Z,1.90
2024-05-09T11:34:25.958Z,2.00
2024-05-09T11:35:28.961Z,1.30
2024-05-09T11:36:31.792Z,1.60
2024-05-09T11:37:36.830Z,1.70
2024-05-09T11:38:38.396Z,0.20
2024-05-09T11:39:40.773Z,1.00
2024-05-09T11:40:43.507Z,0.90
2024-05-09T11:41:46.061Z,1.00
2024-05-09T11:42:50.819Z,1.00
2024-05-09T11:43:52.641Z,1.20
2024-05-09T11:44:55.053Z,1.00
2024-05-09T11:45:58.153Z,0.90
2024-05-09T11:47:00.765Z,1.30
2024-05-09T11:48:03.891Z,1.00
2024-05-09T11:49:06.424Z,1.40
2024-05-09T11:50:15.976Z,1.80
2024-05-09T11:51:13.946Z,1.20
2024-05-09T11:52:16.694Z,1.30
2024-05-09T11:53:19.082Z,1.10
2024-05-09T11:54:21.522Z,1.40
2024-05-09T11:55:28.060Z,1.00
2024-05-09T11:56:30.224Z,0.80
2024-05-09T11:57:32.704Z,1.50
2024-05-09T11:58:37.982Z,1.70
2024-05-09T11:59:40.294Z,1.00
2024-05-09T12:00:42.962Z,1.60
2024-05-09T12:01:45.691Z,1.80
2024-05-09T12:02:48.229Z,1.00
2024-05-09T12:03:50.959Z,1.60
2024-05-09T12:04:54.315Z,1.00
2024-05-09T12:05:56.671Z,1.60
2024-05-09T12:06:59.698Z,1.40
2024-05-09T12:08:02.614Z,1.00
2024-05-09T12:09:05.441Z,0.64
2024-05-09T12:10:13.931Z,1.20
2024-05-09T12:11:13.204Z,1.00
2024-05-09T12:12:15.571Z,1.30
2024-05-09T12:13:17.999Z,1.00
2024-05-09T12:14:20.006Z,1.00
2024-05-09T12:15:22.150Z,1.50
2024-05-09T12:16:25.187Z,1.00
2024-05-09T12:17:28.188Z,1.50
2024-05-09T12:18:31.138Z,1.00
2024-05-09T12:19:33.940Z,1.00
2024-05-09T12:20:39.293Z,0.27
2024-05-09T12:21:41.012Z,1.00
2024-05-09T12:22:43.173Z,0.80
2024-05-09T12:23:46.174Z,1.00
2024-05-09T12:24:48.426Z,1.00
2024-05-09T12:25:50.619Z,1.20
2024-05-09T12:26:53.185Z,1.00
2024-05-09T12:27:55.557Z,1.80
2024-05-09T12:28:58.594Z,1.10
2024-05-09T12:30:01.198Z,1.00
2024-05-09T12:31:03.633Z,1.00
2024-05-09T12:32:06.400Z,1.00
2024-05-09T12:33:13.628Z,1.30
2024-05-09T12:34:16.360Z,1.30
2024-05-09T12:35:19.143Z,1.00
2024-05-09T12:36:21.535Z,1.00
2024-05-09T12:37:23.841Z,1.00
2024-05-09T12:38:26.320Z,1.20
2024-05-09T12:39:28.671Z,1.60
2024-05-09T12:40:36.032Z,1.90
2024-05-09T12:41:35.404Z,1.00
2024-05-09T12:42:37.671Z,1.60
2024-05-09T12:43:39.666Z,1.00
2024-05-09T12:44:41.645Z,1.10
2024-05-09T12:45:44.016Z,1.50
2024-05-09T12:46:46.291Z,1.50
2024-05-09T12:47:48.578Z,1.50
2024-05-09T12:48:53.058Z,1.80
2024-05-09T12:49:55.874Z,1.50
2024-05-09T12:50:58.266Z,1.09
2024-05-09T12:52:00.261Z,1.40
2024-05-09T12:53:03.737Z,1.00
2024-05-09T12:54:06.643Z,2.00
2024-05-09T12:55:10.509Z,1.50
2024-05-09T12:56:14.453Z,0.50
2024-05-09T12:57:16.790Z,1.30
2024-05-09T12:58:21.130Z,2.00
2024-05-09T12:59:23.480Z,1.80
2024-05-09T13:00:31.574Z,2.00
2024-05-09T13:01:31.797Z,1.90
2024-05-09T13:02:34.014Z,1.10
2024-05-09T13:03:36.985Z,1.00
2024-05-09T13:04:39.719Z,0.80
2024-05-09T13:05:44.142Z,1.30
2024-05-09T13:06:47.569Z,1.20
2024-05-09T13:07:50.365Z,1.09
2024-05-09T13:08:52.633Z,2.20
2024-05-09T13:09:54.994Z,4.00
2024-05-09T13:10:58.389Z,3.70
2024-05-09T13:12:00.907Z,2.00
2024-05-09T13:13:05.201Z,1.00
2024-05-09T13:14:07.407Z,1.40
2024-05-09T13:15:09.451Z,1.50
2024-05-09T13:16:12.220Z,2.00
2024-05-09T13:17:14.582Z,0.20
2024-05-09T13:18:17.357Z,1.70
2024-05-09T13:19:19.919Z,0.45
2024-05-09T13:20:29.398Z,0.90
2024-05-09T13:21:27.244Z,2.10
2024-05-09T13:22:30.672Z,1.80
2024-05-09T13:23:32.863Z,1.50
2024-05-09T13:24:35.334Z,1.00
2024-05-09T13:25:38.320Z,1.30
2024-05-09T13:26:40.935Z,1.90
2024-05-09T13:27:43.223Z,1.20
2024-05-09T13:28:45.453Z,1.50
2024-05-09T13:29:47.591Z,1.10
2024-05-09T13:30:49.923Z,1.30
2024-05-09T13:31:55.478Z,1.82
2024-05-09T13:32:59.385Z,1.60
2024-05-09T13:34:01.726Z,1.10
2024-05-09T13:35:04.232Z,1.50
2024-05-09T13:36:07.756Z,1.60
2024-05-09T13:37:10.216Z,1.40
2024-05-09T13:38:13.417Z,1.40
2024-05-09T13:39:15.863Z,1.70
2024-05-09T13:40:27.154Z,1.70
2024-05-09T13:41:22.747Z,1.40
2024-05-09T13:42:25.128Z,1.09
2024-05-09T13:43:27.299Z,1.60
2024-05-09T13:44:29.798Z,1.80
2024-05-09T13:45:33.373Z,1.00
2024-05-09T13:46:36.294Z,0.20
2024-05-09T13:47:39.249Z,1.10
2024-05-09T13:48:43.270Z,1.40
2024-05-09T13:49:47.509Z,1.00
2024-05-09T13:50:50.134Z,1.30
2024-05-09T13:51:52.320Z,0.30
2024-05-09T13:52:54.484Z,1.50
2024-05-09T13:53:58.639Z,1.00
2024-05-09T13:55:00.992Z,0.50
2024-05-09T13:56:03.605Z,1.50
2024-05-09T13:57:05.846Z,0.90
2024-05-09T13:58:09.574Z,1.00
2024-05-09T13:59:12.216Z,2.00
2024-05-09T14:00:27.267Z,0.90
2024-05-09T14:01:18.948Z,0.20
2024-05-09T14:02:22.034Z,0.20
2024-05-09T14:03:26.961Z,1.55
2024-05-09T14:04:29.759Z,0.90
2024-05-09T14:05:32.677Z,1.09